Time;durP1;ratioP1;P1;durP2;ratioP2;P2;SDS_P1;SDS_P2;PMS_P1;PMS_P2;Temp;Humidity;BMP_temperature;BMP_pressure;BME280_temperature;BME280_humidity;BME280_pressure;Samples;Min_cycle;Max_cycle;Signal;HPM_P1;HPM_P2
2023/10/14 00:01:55;;;;;;;8.53;5.70;;;20.80;99.90;;;;;;4937504;29;20776;-80
2023/10/14 00:04:26;;;;;;;7.70;6.03;;;20.70;99.90;;;;;;4937097;29;20487;-79
2023/10/14 00:06:54;;;;;;;7.10;5.47;;;20.70;99.90;;;;;;4941139;29;20815;-86
2023/10/14 00:09:22;;;;;;;9.30;5.57;;;20.70;99.90;;;;;;4937513;29;20477;-80
2023/10/14 00:11:54;;;;;;;8.43;4.90;;;20.60;99.90;;;;;;4936776;29;20590;-80
2023/10/14 00:14:23;;;;;;;7.57;5.80;;;20.60;99.90;;;;;;4936822;29;20492;-80
2023/10/14 00:16:52;;;;;;;6.73;6.07;;;20.60;99.90;;;;;;4927211;29;20494;-80
2023/10/14 00:19:20;;;;;;;8.37;5.20;;;20.60;99.90;;;;;;4937503;29;20475;-81
2023/10/14 00:21:50;;;;;;;8.63;5.50;;;20.50;99.90;;;;;;4936289;29;20480;-81
2023/10/14 00:24:25;;;;;;;6.63;5.83;;;20.40;99.90;;;;;;4936532;29;20504;-80
2023/10/14 00:26:53;;;;;;;10.43;5.43;;;20.40;99.90;;;;;;4932603;29;20484;-81
2023/10/14 00:29:20;;;;;;;7.50;5.40;;;20.30;99.90;;;;;;4937525;29;20469;-81
2023/10/14 00:31:49;;;;;;;8.73;4.93;;;20.20;99.90;;;;;;4936146;29;20473;-85
2023/10/14 00:34:17;;;;;;;7.50;5.77;;;20.20;99.90;;;;;;4936392;29;20959;-85
2023/10/14 00:36:44;;;;;;;7.07;5.83;;;20.20;99.90;;;;;;4936235;29;20473;-85
2023/10/14 00:39:16;;;;;;;6.83;5.03;;;20.10;99.90;;;;;;4935680;29;20844;-85
2023/10/14 00:41:44;;;;;;;9.80;8.80;;;20.10;99.90;;;;;;4936455;29;20473;-85
2023/10/14 00:44:12;;;;;;;5.33;4.83;;;20.10;99.90;;;;;;4938428;29;20818;-85
2023/10/14 00:46:52;;;;;;;13.67;5.47;;;20.10;99.90;;;;;;4953082;29;20480;-80
2023/10/14 00:49:37;;;;;;;8.07;4.47;;;20.10;99.90;;;;;;4927526;29;20547;-86
2023/10/14 00:52:10;;;;;;;6.33;4.60;;;20.10;99.90;;;;;;4936044;29;20483;-85
2023/10/14 00:54:58;;;;;;;13.77;6.13;;;20.10;99.90;;;;;;4937420;29;20811;-85
2023/10/14 00:57:37;;;;;;;7.77;5.63;;;20.10;99.90;;;;;;4937422;29;20460;-78
2023/10/14 01:00:09;;;;;;;7.33;5.30;;;20.10;99.90;;;;;;4938044;29;20568;-85
2023/10/14 01:02:38;;;;;;;5.73;4.70;;;20.10;99.90;;;;;;4938918;29;20476;-85
2023/10/14 01:05:08;;;;;;;5.40;4.47;;;20.10;99.90;;;;;;4935413;29;20485;-85
2023/10/14 01:07:38;;;;;;;7.77;5.50;;;20.10;99.90;;;;;;4937532;29;20471;-86
2023/10/14 01:10:11;;;;;;;7.77;3.87;;;20.10;99.90;;;;;;4936729;29;20504;-84
2023/10/14 01:12:40;;;;;;;9.07;5.50;;;20.20;99.90;;;;;;4929583;29;21120;-86
2023/10/14 01:15:17;;;;;;;12.50;5.10;;;20.10;99.90;;;;;;4930855;29;21014;-80
2023/10/14 01:17:53;;;;;;;6.80;5.30;;;20.10;99.90;;;;;;4936075;29;20464;-85
2023/10/14 01:20:36;;;;;;;8.47;4.97;;;20.10;99.90;;;;;;4935542;29;20863;-86
2023/10/14 01:23:07;;;;;;;5.97;4.40;;;20.20;99.90;;;;;;4935336;29;20492;-86
2023/10/14 01:25:41;;;;;;;7.50;6.03;;;20.20;99.90;;;;;;4935372;29;20488;-85
2023/10/14 01:28:12;;;;;;;8.57;4.90;;;20.20;99.90;;;;;;4935736;29;20472;-79
2023/10/14 01:30:50;;;;;;;8.03;6.43;;;20.20;99.90;;;;;;4934961;29;20477;-81
2023/10/14 01:33:24;;;;;;;7.60;5.00;;;20.20;99.90;;;;;;4934887;29;20967;-86
2023/10/14 01:35:52;;;;;;;6.23;4.83;;;20.20;99.90;;;;;;4934047;29;20468;-80
2023/10/14 01:38:23;;;;;;;7.00;5.80;;;20.20;99.90;;;;;;4934730;29;20479;-86
2023/10/14 01:40:52;;;;;;;7.87;5.57;;;20.20;99.90;;;;;;4935560;29;20473;-86
2023/10/14 01:43:24;;;;;;;9.63;5.33;;;20.30;99.90;;;;;;4934888;29;20867;-86
2023/10/14 01:46:00;;;;;;;9.13;5.10;;;20.20;99.90;;;;;;4935541;29;20560;-86
2023/10/14 01:48:30;;;;;;;4.93;4.37;;;20.20;99.90;;;;;;4933988;29;20487;-86
2023/10/14 01:50:58;;;;;;;5.70;4.93;;;20.20;99.90;;;;;;4933661;29;20993;-80
2023/10/14 01:53:31;;;;;;;7.97;4.90;;;20.10;99.90;;;;;;4933078;29;20872;-81
2023/10/14 01:55:59;;;;;;;9.63;4.50;;;20.20;99.90;;;;;;4933429;29;20472;-80
2023/10/14 01:58:32;;;;;;;6.90;4.97;;;20.10;99.90;;;;;;4933125;29;20556;-85
2023/10/14 02:01:04;;;;;;;5.93;4.40;;;20.10;99.90;;;;;;4933785;29;20864;-86
2023/10/14 02:03:33;;;;;;;7.77;4.70;;;20.10;99.90;;;;;;4935666;29;20821;-81
2023/10/14 02:06:10;;;;;;;6.27;4.67;;;20.00;99.90;;;;;;4935237;29;20473;-85
2023/10/14 02:08:39;;;;;;;9.70;5.13;;;20.00;99.90;;;;;;4938537;29;20463;-81
2023/10/14 02:11:06;;;;;;;8.30;5.50;;;19.90;99.90;;;;;;4939277;29;20487;-80
2023/10/14 02:13:36;;;;;;;5.87;4.77;;;19.90;99.90;;;;;;4938618;29;20957;-81
2023/10/14 02:16:08;;;;;;;6.77;4.90;;;19.90;99.90;;;;;;4938813;29;20491;-80
2023/10/14 02:18:37;;;;;;;7.53;4.50;;;19.90;99.90;;;;;;4938656;29;20563;-80
2023/10/14 02:21:11;;;;;;;6.27;4.27;;;19.90;99.90;;;;;;4938628;29;20483;-84
2023/10/14 02:23:48;;;;;;;6.63;5.07;;;20.00;99.90;;;;;;4938445;29;20535;-85
2023/10/14 02:26:24;;;;;;;6.30;5.20;;;19.90;99.90;;;;;;4938513;29;20973;-86
2023/10/14 02:28:54;;;;;;;6.40;5.30;;;19.90;99.90;;;;;;4938901;29;20795;-85
2023/10/14 02:31:30;;;;;;;5.90;4.47;;;19.90;99.90;;;;;;4939247;29;20477;-86
2023/10/14 02:34:00;;;;;;;6.43;4.70;;;19.90;99.90;;;;;;4938396;29;20811;-86
2023/10/14 02:36:29;;;;;;;5.73;4.47;;;19.80;99.90;;;;;;4938584;29;20811;-86
2023/10/14 02:38:58;;;;;;;5.43;4.80;;;19.80;99.90;;;;;;4937823;29;20933;-81
2023/10/14 02:41:30;;;;;;;8.20;4.40;;;19.80;99.90;;;;;;4938507;29;20818;-80
2023/10/14 02:44:18;;;;;;;9.67;4.73;;;19.80;99.90;;;;;;4941537;29;20459;-85
2023/10/14 02:46:46;;;;;;;5.90;4.90;;;19.80;99.90;;;;;;4940454;29;20464;-79
2023/10/14 02:49:14;;;;;;;6.20;4.77;;;19.80;99.90;;;;;;4938841;29;20468;-81
2023/10/14 02:51:43;;;;;;;9.33;4.70;;;19.80;99.90;;;;;;4938085;29;20963;-81
2023/10/14 02:54:26;;;;;;;4.40;4.00;;;19.80;99.90;;;;;;4938336;29;20519;-80
2023/10/14 02:56:57;;;;;;;11.40;5.17;;;19.70;99.90;;;;;;4938594;29;20472;-80
2023/10/14 02:59:35;;;;;;;5.83;4.97;;;19.70;99.90;;;;;;4938394;29;20472;-82
2023/10/14 03:05:08;;;;;;;4.40;3.87;;;19.70;99.90;;;;;;4937787;29;20476;-81
2023/10/14 03:07:50;;;;;;;7.83;4.40;;;19.80;99.90;;;;;;4939093;29;20510;-80
2023/10/14 03:10:28;;;;;;;8.53;4.60;;;19.80;99.90;;;;;;4938369;29;20472;-85
2023/10/14 03:12:57;;;;;;;6.07;4.30;;;19.80;99.90;;;;;;4938568;29;20464;-86
2023/10/14 03:15:25;;;;;;;7.37;5.40;;;19.80;99.90;;;;;;4938576;29;21043;-85
2023/10/14 03:17:55;;;;;;;6.47;4.50;;;19.80;99.90;;;;;;4937842;29;20887;-86
2023/10/14 03:23:17;;;;;;;5.30;4.83;;;19.90;99.90;;;;;;4938193;29;20473;-80
2023/10/14 03:25:47;;;;;;;6.10;4.70;;;20.00;99.90;;;;;;4937959;29;20464;-84
2023/10/14 03:28:14;;;;;;;6.30;4.20;;;20.00;99.90;;;;;;4939171;29;20476;-80
2023/10/14 03:30:45;;;;;;;7.40;4.67;;;20.00;99.90;;;;;;4937353;29;20469;-85
2023/10/14 03:33:13;;;;;;;4.90;4.47;;;20.00;99.90;;;;;;4938183;29;20548;-80
2023/10/14 03:35:53;;;;;;;5.10;4.40;;;20.10;99.90;;;;;;4929088;29;20484;-84
2023/10/14 03:38:33;;;;;;;10.50;5.10;;;20.10;99.90;;;;;;4938140;29;20484;-86
2023/10/14 03:41:10;;;;;;;8.50;4.77;;;20.20;99.90;;;;;;4938600;29;20959;-82
2023/10/14 03:43:44;;;;;;;5.67;4.70;;;20.20;99.90;;;;;;4938105;29;20500;-85
2023/10/14 03:46:12;;;;;;;8.60;4.33;;;20.20;99.90;;;;;;4937244;29;20951;-81
2023/10/14 03:48:47;;;;;;;12.83;6.10;;;20.30;99.90;;;;;;4935066;29;20847;-81
2023/10/14 03:51:22;;;;;;;7.10;5.03;;;20.40;99.90;;;;;;4937842;29;20483;-84
2023/10/14 03:53:52;;;;;;;8.03;5.80;;;20.30;99.90;;;;;;4939415;29;20468;-81
2023/10/14 03:56:25;;;;;;;8.50;5.70;;;20.40;99.90;;;;;;4938168;29;20477;-81
2023/10/14 03:58:55;;;;;;;8.73;6.10;;;20.40;99.90;;;;;;4937369;29;20544;-81
2023/10/14 04:01:28;;;;;;;6.90;6.00;;;20.40;99.90;;;;;;4937336;29;20473;-84
2023/10/14 04:03:56;;;;;;;5.27;4.77;;;20.50;99.90;;;;;;4939164;29;20453;-85
2023/10/14 04:06:23;;;;;;;6.50;5.57;;;20.50;99.90;;;;;;4938719;29;20507;-81
2023/10/14 04:08:51;;;;;;;7.17;5.20;;;20.50;99.90;;;;;;4926282;29;20871;-85
2023/10/14 04:11:25;;;;;;;11.27;5.17;;;20.50;99.90;;;;;;4937994;29;20469;-85
2023/10/14 04:14:02;;;;;;;5.93;5.33;;;20.60;99.90;;;;;;4936839;29;20472;-81
2023/10/14 04:16:37;;;;;;;9.23;5.30;;;20.60;99.90;;;;;;4937131;29;20556;-81
2023/10/14 04:19:19;;;;;;;9.40;5.60;;;20.50;99.90;;;;;;4936724;29;20460;-81
2023/10/14 04:21:53;;;;;;;6.77;4.80;;;20.50;99.90;;;;;;4937434;29;20909;-80
2023/10/14 04:24:27;;;;;;;5.40;4.90;;;20.50;99.90;;;;;;4936756;29;20993;-81
2023/10/14 04:27:16;;;;;;;7.83;5.03;;;20.50;99.90;;;;;;4936686;29;20476;-81
2023/10/14 04:29:51;;;;;;;7.90;5.60;;;20.60;99.90;;;;;;4927009;29;20469;-85
2023/10/14 04:32:25;;;;;;;7.03;5.33;;;20.50;99.90;;;;;;4937085;29;20531;-85
2023/10/14 04:34:54;;;;;;;8.60;5.43;;;20.50;99.90;;;;;;4936403;29;20472;-81
2023/10/14 04:37:22;;;;;;;7.80;5.57;;;20.50;99.90;;;;;;4936420;29;20499;-81
2023/10/14 04:39:58;;;;;;;9.37;6.40;;;20.50;99.90;;;;;;4937457;29;20669;-84
2023/10/14 04:42:36;;;;;;;9.90;5.70;;;20.50;99.90;;;;;;4937456;29;20476;-85
2023/10/14 04:45:06;;;;;;;13.33;5.90;;;20.50;99.90;;;;;;4936419;29;20499;-85
2023/10/14 04:47:44;;;;;;;6.70;5.90;;;20.60;99.90;;;;;;4938553;29;20556;-81
2023/10/14 04:50:14;;;;;;;7.43;6.30;;;20.60;99.90;;;;;;4935923;29;20476;-81
2023/10/14 04:52:43;;;;;;;8.00;5.43;;;20.70;99.90;;;;;;4936090;29;20480;-81
2023/10/14 04:55:25;;;;;;;6.50;5.80;;;20.60;99.90;;;;;;4935890;29;20473;-80
2023/10/14 04:58:12;;;;;;;7.20;5.47;;;20.70;99.90;;;;;;4936166;29;20472;-85
2023/10/14 05:00:43;;;;;;;6.53;5.90;;;20.70;99.90;;;;;;4936340;29;20484;-81
2023/10/14 05:03:12;;;;;;;8.33;6.20;;;20.70;99.90;;;;;;4926474;29;20536;-85
2023/10/14 05:05:41;;;;;;;7.03;6.00;;;20.70;99.90;;;;;;4936396;29;20476;-86
2023/10/14 05:08:15;;;;;;;7.20;6.50;;;20.70;99.90;;;;;;4936200;29;20469;-81
2023/10/14 05:10:44;;;;;;;9.73;6.00;;;20.70;99.90;;;;;;4936272;29;20464;-81
2023/10/14 05:13:15;;;;;;;9.70;6.23;;;20.60;99.90;;;;;;4935420;29;20531;-80
2023/10/14 05:15:44;;;;;;;6.20;5.60;;;20.60;99.90;;;;;;4935800;29;20955;-84
2023/10/14 05:18:16;;;;;;;13.17;6.73;;;20.60;99.90;;;;;;4936452;29;20564;-84
2023/10/14 05:21:03;;;;;;;6.20;5.60;;;20.40;99.90;;;;;;4935905;29;20480;-85
2023/10/14 05:23:33;;;;;;;7.47;5.60;;;20.30;99.90;;;;;;4936980;29;20483;-84
2023/10/14 05:26:06;;;;;;;7.43;4.73;;;20.20;99.90;;;;;;4936002;29;20531;-86
2023/10/14 05:28:42;;;;;;;7.60;5.77;;;20.10;99.90;;;;;;4935605;29;20471;-81
2023/10/14 05:31:13;;;;;;;5.03;4.53;;;20.00;99.90;;;;;;4935483;29;20468;-85
2023/10/14 05:33:42;;;;;;;5.90;5.30;;;19.90;99.90;;;;;;4935790;29;20472;-82
2023/10/14 05:36:12;;;;;;;5.13;4.63;;;19.80;99.90;;;;;;4934826;29;20887;-82
2023/10/14 05:38:39;;;;;;;4.30;3.90;;;19.80;99.90;;;;;;4935805;29;20469;-80
2023/10/14 05:41:09;;;;;;;6.30;3.73;;;19.70;99.90;;;;;;4934293;29;20829;-81
2023/10/14 05:43:38;;;;;;;3.10;2.13;;;19.60;99.90;;;;;;4935463;29;20477;-86
2023/10/14 05:46:12;;;;;;;1.53;1.30;;;19.40;99.90;;;;;;4935212;29;20558;-81
2023/10/14 05:48:38;;;;;;;2.23;2.03;;;19.30;99.90;;;;;;4935732;29;20479;-81
2023/10/14 05:51:05;;;;;;;1.77;1.43;;;19.10;99.90;;;;;;4934880;29;20505;-85
2023/10/14 05:53:33;;;;;;;2.07;1.87;;;19.00;99.90;;;;;;4935802;29;20536;-85
2023/10/14 05:56:09;;;;;;;2.67;1.90;;;18.90;99.90;;;;;;4935573;29;20555;-86
2023/10/14 05:58:38;;;;;;;2.87;2.60;;;18.80;99.90;;;;;;4936097;29;20471;-84
2023/10/14 06:01:10;;;;;;;2.53;1.43;;;18.70;99.90;;;;;;4939324;29;20473;-85
2023/10/14 06:03:41;;;;;;;1.70;1.20;;;18.60;99.90;;;;;;4937592;29;20552;-86
2023/10/14 06:06:09;;;;;;;1.03;0.93;;;18.40;99.90;;;;;;4935248;29;20536;-85
2023/10/14 06:08:37;;;;;;;2.10;1.90;;;18.30;99.90;;;;;;4935271;29;20540;-86
2023/10/14 06:11:05;;;;;;;1.10;1.00;;;18.20;99.90;;;;;;4936259;29;20532;-86
2023/10/14 06:13:32;;;;;;;1.20;1.10;;;18.10;99.90;;;;;;4924999;29;20489;-87
2023/10/14 06:16:04;;;;;;;1.30;1.20;;;18.00;99.90;;;;;;4935026;29;20975;-81
2023/10/14 06:18:31;;;;;;;2.00;1.20;;;17.90;99.90;;;;;;4935160;29;20509;-81
2023/10/14 06:20:59;;;;;;;2.17;1.57;;;17.80;99.90;;;;;;4935056;29;20483;-86
2023/10/14 06:23:27;;;;;;;2.67;1.30;;;17.70;99.90;;;;;;4935936;29;20477;-86
2023/10/14 06:25:54;;;;;;;1.27;1.10;;;17.60;99.90;;;;;;4918079;29;20974;-81
2023/10/14 06:28:30;;;;;;;2.20;1.40;;;17.50;99.90;;;;;;4935746;29;20468;-85
2023/10/14 06:31:00;;;;;;;1.87;1.23;;;17.50;99.90;;;;;;4934241;29;20476;-81
2023/10/14 06:33:29;;;;;;;1.47;1.30;;;17.40;99.90;;;;;;4935300;29;20551;-85
2023/10/14 06:36:03;;;;;;;3.93;1.37;;;17.30;99.90;;;;;;4934623;29;20515;-85
2023/10/14 06:38:33;;;;;;;1.90;1.43;;;17.20;99.90;;;;;;4935246;29;20479;-86
2023/10/14 06:41:01;;;;;;;1.13;1.00;;;17.20;99.90;;;;;;4934414;29;20488;-80
2023/10/14 06:43:33;;;;;;;5.13;1.37;;;17.20;99.90;;;;;;4934884;29;20571;-80
2023/10/14 06:46:04;;;;;;;1.43;0.97;;;17.10;99.90;;;;;;4934036;29;20487;-85
2023/10/14 06:48:33;;;;;;;1.37;1.27;;;17.10;99.90;;;;;;4934958;29;20486;-84
2023/10/14 06:51:01;;;;;;;2.53;2.13;;;17.10;99.90;;;;;;4934191;29;20494;-80
2023/10/14 06:53:29;;;;;;;1.40;1.20;;;17.00;99.90;;;;;;4935427;29;20820;-85
2023/10/14 06:55:56;;;;;;;2.83;1.20;;;17.00;99.90;;;;;;4937332;29;20495;-85
2023/10/14 06:58:23;;;;;;;1.00;0.90;;;17.00;99.90;;;;;;4938675;29;20500;-85
2023/10/14 07:00:50;;;;;;;1.20;1.10;;;16.90;99.90;;;;;;4938181;29;20476;-81
2023/10/14 07:03:18;;;;;;;1.30;1.10;;;16.90;99.90;;;;;;4939048;29;20496;-81
2023/10/14 07:05:56;;;;;;;1.93;1.10;;;16.90;99.90;;;;;;4938306;29;20551;-85
2023/10/14 07:08:24;;;;;;;1.17;1.07;;;16.90;99.90;;;;;;4939188;29;20613;-85
2023/10/14 07:10:54;;;;;;;1.77;1.30;;;16.90;99.90;;;;;;4940596;29;20480;-85
2023/10/14 07:13:22;;;;;;;1.90;0.97;;;16.80;99.90;;;;;;4938995;29;20464;-86
2023/10/14 07:15:50;;;;;;;1.60;1.30;;;16.80;99.90;;;;;;4937742;29;20547;-80
2023/10/14 07:18:22;;;;;;;2.97;1.20;;;16.80;99.90;;;;;;4937510;29;20544;-81
2023/10/14 07:20:57;;;;;;;1.93;1.10;;;16.80;99.90;;;;;;4938053;29;20555;-81
2023/10/14 07:23:25;;;;;;;1.20;1.07;;;16.80;99.90;;;;;;4937666;29;20544;-86
2023/10/14 07:25:57;;;;;;;2.63;1.20;;;16.80;99.90;;;;;;4937949;29;20831;-82
2023/10/14 07:28:25;;;;;;;2.70;1.83;;;16.80;99.90;;;;;;4937153;29;20474;-86
2023/10/14 07:30:59;;;;;;;3.53;1.70;;;16.80;99.90;;;;;;4938208;29;20504;-80
2023/10/14 07:33:26;;;;;;;1.43;1.33;;;16.80;99.90;;;;;;4925060;29;20492;-82
2023/10/14 07:35:54;;;;;;;2.90;1.50;;;16.80;99.90;;;;;;4916714;29;20532;-80
2023/10/14 07:38:21;;;;;;;3.77;1.50;;;16.80;99.90;;;;;;4918710;29;20473;-81
2023/10/14 07:40:49;;;;;;;2.03;1.10;;;16.80;99.90;;;;;;4917889;29;20548;-80
2023/10/14 07:43:16;;;;;;;2.77;1.73;;;16.80;99.90;;;;;;4919069;29;20477;-86
2023/10/14 07:45:46;;;;;;;1.60;1.30;;;16.80;99.90;;;;;;4918509;29;20504;-86
2023/10/14 07:48:19;;;;;;;2.60;1.13;;;16.80;99.90;;;;;;4918695;29;20549;-80
2023/10/14 07:50:50;;;;;;;2.37;1.20;;;16.80;99.90;;;;;;4909537;29;20471;-85
2023/10/14 07:53:22;;;;;;;3.63;1.30;;;16.80;99.90;;;;;;4917935;29;20481;-86
2023/10/14 07:55:51;;;;;;;2.33;1.40;;;16.80;99.90;;;;;;4918092;29;20545;-81
2023/10/14 07:58:23;;;;;;;3.20;1.77;;;16.80;99.90;;;;;;4917565;29;20569;-81
2023/10/14 08:00:51;;;;;;;3.90;1.67;;;16.80;99.90;;;;;;4917792;29;20536;-80
2023/10/14 08:03:20;;;;;;;4.40;2.03;;;16.80;99.90;;;;;;4918199;29;20478;-81
2023/10/14 08:05:49;;;;;;;4.50;2.20;;;16.80;99.90;;;;;;4916770;29;20477;-80
2023/10/14 08:08:19;;;;;;;3.10;2.27;;;16.80;99.90;;;;;;4918729;29;21075;-80
2023/10/14 08:10:49;;;;;;;2.20;1.30;;;16.70;99.90;;;;;;4917919;29;20527;-79
2023/10/14 08:13:21;;;;;;;3.17;1.97;;;16.70;99.90;;;;;;4918398;29;20469;-81
2023/10/14 08:15:50;;;;;;;3.20;2.03;;;16.70;99.90;;;;;;4917476;29;20524;-84
2023/10/14 08:18:23;;;;;;;4.27;1.73;;;16.80;99.90;;;;;;4918983;29;20534;-85
2023/10/14 08:20:53;;;;;;;1.93;1.50;;;16.80;99.90;;;;;;4917575;29;20790;-80
2023/10/14 08:23:21;;;;;;;2.97;1.90;;;16.90;99.90;;;;;;4918096;29;20473;-79
2023/10/14 08:25:54;;;;;;;4.90;1.97;;;16.90;99.90;;;;;;4917185;29;20853;-79
2023/10/14 08:28:21;;;;;;;6.53;5.30;;;16.90;99.90;;;;;;4917967;29;20972;-85
2023/10/14 08:30:50;;;;;;;5.93;3.80;;;16.90;99.90;;;;;;4917721;29;20556;-80
2023/10/14 08:33:19;;;;;;;4.57;3.13;;;17.00;99.90;;;;;;4917817;29;20477;-81
2023/10/14 08:35:48;;;;;;;4.23;2.20;;;17.00;99.90;;;;;;4925050;29;20826;-80
2023/10/14 08:38:19;;;;;;;5.03;2.60;;;17.00;99.90;;;;;;4936691;29;20461;-80
2023/10/14 08:40:49;;;;;;;4.83;3.47;;;17.00;99.90;;;;;;4936212;29;20477;-81
2023/10/14 08:43:20;;;;;;;12.33;4.47;;;17.10;99.90;;;;;;4936514;29;20464;-81
2023/10/14 08:45:48;;;;;;;6.60;3.50;;;17.10;99.90;;;;;;4935898;29;20986;-80
2023/10/14 08:48:16;;;;;;;2.50;2.10;;;17.10;99.90;;;;;;4936574;29;20476;-81
2023/10/14 08:53:40;;;;;;;7.43;3.00;;;17.20;99.90;;;;;;4926422;29;20464;-80
2023/10/14 08:56:09;;;;;;;4.17;2.87;;;17.20;99.90;;;;;;4936500;29;20496;-80
2023/10/14 08:58:37;;;;;;;3.77;1.73;;;17.30;99.90;;;;;;4936246;29;20472;-80
2023/10/14 09:01:05;;;;;;;6.70;2.17;;;17.30;99.90;;;;;;4935243;29;20453;-80
2023/10/14 09:03:32;;;;;;;5.57;1.70;;;17.30;99.90;;;;;;4926228;29;20802;-85
2023/10/14 09:06:01;;;;;;;7.13;2.07;;;17.40;99.90;;;;;;4934904;29;20476;-80
2023/10/14 09:08:39;;;;;;;4.90;1.87;;;17.40;99.90;;;;;;4917722;29;20496;-85
2023/10/14 09:11:25;;;;;;;7.13;1.60;;;17.40;99.90;;;;;;4936161;29;20507;-87
2023/10/14 09:14:03;;;;;;;3.40;1.87;;;17.40;99.90;;;;;;4936129;29;20471;-85
2023/10/14 09:16:34;;;;;;;6.23;3.00;;;17.30;99.90;;;;;;4936954;29;20484;-85
2023/10/14 09:19:04;;;;;;;6.20;2.00;;;17.30;99.90;;;;;;4938457;29;20468;-86
2023/10/14 09:21:32;;;;;;;4.27;2.73;;;17.30;99.90;;;;;;4936782;29;20504;-86
2023/10/14 09:24:07;;;;;;;6.07;2.53;;;17.30;99.90;;;;;;4936957;29;20491;-85
2023/10/14 09:26:43;;;;;;;4.83;1.80;;;17.30;99.90;;;;;;4927623;29;20547;-85
2023/10/14 09:29:12;;;;;;;7.87;2.63;;;17.30;99.90;;;;;;4936305;29;20476;-80
2023/10/14 09:31:39;;;;;;;8.90;2.00;;;17.30;99.90;;;;;;4925521;29;20837;-81
2023/10/14 09:34:08;;;;;;;10.70;2.90;;;17.30;99.90;;;;;;4935336;29;20505;-82
2023/10/14 09:36:42;;;;;;;7.33;2.07;;;17.40;99.90;;;;;;4934928;29;20508;-84
2023/10/14 09:39:24;;;;;;;9.17;2.90;;;17.40;99.90;;;;;;4936237;29;20480;-85
2023/10/14 09:41:54;;;;;;;5.37;3.30;;;17.40;99.90;;;;;;4935549;29;20532;-80
2023/10/14 09:44:25;;;;;;;6.70;3.57;;;17.40;99.90;;;;;;4936356;29;20500;-80
2023/10/14 09:46:55;;;;;;;8.87;3.00;;;17.40;99.90;;;;;;4935806;29;20565;-80
2023/10/14 09:49:24;;;;;;;9.17;3.00;;;17.40;99.90;;;;;;4935831;29;21003;-80
2023/10/14 09:51:53;;;;;;;3.70;2.30;;;17.40;99.90;;;;;;4935206;29;20468;-81
2023/10/14 09:54:24;;;;;;;5.53;2.40;;;17.50;99.90;;;;;;4935467;29;20549;-79
2023/10/14 09:56:54;;;;;;;8.03;2.10;;;17.50;99.90;;;;;;4935644;29;20480;-84
2023/10/14 09:59:22;;;;;;;6.40;2.27;;;17.50;99.90;;;;;;4935454;29;20476;-84
2023/10/14 10:01:53;;;;;;;8.53;2.20;;;17.60;99.90;;;;;;4918831;29;20473;-85
2023/10/14 10:07:53;;;;;;;5.97;1.80;;;17.70;99.90;;;;;;4909610;29;20484;-85
2023/10/14 10:10:25;;;;;;;5.03;2.20;;;17.70;99.90;;;;;;4934809;29;21173;-85
2023/10/14 10:12:55;;;;;;;4.83;2.00;;;17.70;99.90;;;;;;4935470;29;20537;-86
2023/10/14 10:15:24;;;;;;;4.80;2.00;;;17.80;99.90;;;;;;4925839;29;20532;-84
2023/10/14 10:18:04;;;;;;;6.93;2.47;;;17.80;99.90;;;;;;4935714;29;20481;-85
2023/10/14 10:20:35;;;;;;;5.43;2.60;;;17.80;99.90;;;;;;4934828;29;20512;-85
2023/10/14 10:23:10;;;;;;;7.97;1.93;;;17.90;99.90;;;;;;4935410;29;20875;-86
2023/10/14 10:26:14;;;;;;;5.20;2.10;;;17.90;99.90;;;;;;4934819;29;20535;-86
2023/10/14 10:28:41;;;;;;;1.50;1.20;;;17.90;99.90;;;;;;4871666;29;20550;-84
2023/10/14 10:31:11;;;;;;;4.30;1.63;;;17.90;99.90;;;;;;4871776;29;20731;-84
2023/10/14 10:33:46;;;;;;;6.93;2.30;;;17.90;99.90;;;;;;4909603;29;20554;-84
2023/10/14 10:36:14;;;;;;;4.03;1.80;;;17.90;99.90;;;;;;4938586;29;20943;-84
2023/10/14 10:38:43;;;;;;;4.43;2.00;;;17.80;99.90;;;;;;4938493;29;20476;-84
2023/10/14 10:41:23;;;;;;;2.77;1.77;;;17.90;99.90;;;;;;4938761;29;20559;-85
2023/10/14 10:43:52;;;;;;;2.70;1.20;;;17.90;99.90;;;;;;4936898;29;20462;-86
2023/10/14 10:46:38;;;;;;;7.23;1.67;;;17.90;99.90;;;;;;4939151;29;20544;-85
2023/10/14 10:49:12;;;;;;;4.43;1.53;;;17.90;99.90;;;;;;4939197;29;20527;-81
2023/10/14 10:51:50;;;;;;;2.83;1.70;;;18.00;99.90;;;;;;4928544;29;20464;-80
2023/10/14 10:54:22;;;;;;;5.60;2.00;;;18.00;99.90;;;;;;4938603;29;20490;-85
2023/10/14 10:56:49;;;;;;;4.23;1.60;;;18.00;99.90;;;;;;4940609;29;20812;-84
2023/10/14 10:59:18;;;;;;;11.40;2.90;;;18.10;99.90;;;;;;4940884;29;20500;-85
2023/10/14 11:01:47;;;;;;;10.00;2.77;;;18.10;99.90;;;;;;4938202;29;20535;-84
2023/10/14 11:04:14;;;;;;;5.77;2.07;;;18.10;99.90;;;;;;4938727;29;20480;-80
2023/10/14 11:06:41;;;;;;;7.30;2.87;;;18.20;99.90;;;;;;4937764;29;20531;-79
2023/10/14 11:09:13;;;;;;;6.17;2.00;;;18.20;99.90;;;;;;4937627;29;20923;-85
2023/10/14 11:11:41;;;;;;;4.70;2.27;;;18.20;99.90;;;;;;4937977;29;20954;-79
2023/10/14 11:14:17;;;;;;;4.63;1.97;;;18.20;99.90;;;;;;4937996;29;20479;-80
2023/10/14 11:16:44;;;;;;;4.70;1.90;;;18.20;99.90;;;;;;4926922;29;20495;-80
2023/10/14 11:19:11;;;;;;;5.80;1.80;;;18.30;99.90;;;;;;4937914;29;20962;-80
2023/10/14 11:21:39;;;;;;;5.50;2.17;;;18.20;99.90;;;;;;4937665;29;20827;-80
2023/10/14 11:24:09;;;;;;;5.30;2.40;;;18.20;99.90;;;;;;4937960;29;20856;-80
2023/10/14 11:26:37;;;;;;;6.23;2.90;;;18.20;99.90;;;;;;4937062;29;20552;-80
2023/10/14 11:29:06;;;;;;;4.90;2.23;;;18.10;99.90;;;;;;4937888;29;20540;-79
2023/10/14 11:31:33;;;;;;;6.63;2.37;;;18.00;99.90;;;;;;4937004;29;20476;-81
2023/10/14 11:34:06;;;;;;;4.47;2.10;;;18.00;99.90;;;;;;4938120;29;20484;-85
2023/10/14 11:36:36;;;;;;;6.30;1.90;;;18.00;99.90;;;;;;4936998;29;20827;-81
2023/10/14 11:39:12;;;;;;;4.87;1.40;;;17.90;99.90;;;;;;4937269;29;20468;-81
2023/10/14 11:41:39;;;;;;;4.67;1.50;;;17.90;99.90;;;;;;4937207;29;20535;-86
2023/10/14 11:44:08;;;;;;;4.93;1.80;;;17.90;99.90;;;;;;4938086;29;20468;-85
2023/10/14 11:46:38;;;;;;;6.50;2.30;;;17.90;99.90;;;;;;4937556;29;20473;-86
2023/10/14 11:49:10;;;;;;;7.93;1.90;;;17.90;99.90;;;;;;4938555;29;20876;-86
2023/10/14 11:51:41;;;;;;;4.10;1.93;;;17.90;99.90;;;;;;4937290;29;20481;-87
2023/10/14 11:54:18;;;;;;;3.47;1.60;;;17.90;99.90;;;;;;4937440;29;20476;-86
2023/10/14 11:56:47;;;;;;;4.03;2.10;;;18.00;99.90;;;;;;4937808;29;20536;-81
2023/10/14 11:59:22;;;;;;;4.87;1.83;;;18.00;99.90;;;;;;4939397;29;20807;-86
2023/10/14 12:01:51;;;;;;;6.80;1.87;;;18.10;99.90;;;;;;4930538;29;20476;-86
2023/10/14 12:04:20;;;;;;;7.17;1.90;;;18.10;99.90;;;;;;4939514;29;20483;-86
2023/10/14 12:06:49;;;;;;;3.70;1.90;;;18.20;99.90;;;;;;4938802;29;20472;-86
2023/10/14 12:09:19;;;;;;;3.20;2.07;;;18.20;99.90;;;;;;4939136;29;20516;-81
2023/10/14 12:11:47;;;;;;;5.57;2.20;;;18.10;99.90;;;;;;4937410;29;20480;-87
2023/10/14 12:14:16;;;;;;;4.20;2.33;;;18.20;99.90;;;;;;4939150;29;20495;-80
2023/10/14 12:16:43;;;;;;;6.17;2.30;;;18.10;99.90;;;;;;4938145;29;20552;-86
2023/10/14 12:19:11;;;;;;;4.83;1.90;;;18.20;99.90;;;;;;4938572;29;20461;-85
2023/10/14 12:21:38;;;;;;;6.10;2.33;;;18.10;99.90;;;;;;4938338;29;20473;-86
2023/10/14 12:24:09;;;;;;;6.40;2.70;;;18.10;99.90;;;;;;4939022;29;20464;-87
2023/10/14 12:26:43;;;;;;;4.90;2.13;;;18.00;99.90;;;;;;4938132;29;20468;-86
2023/10/14 12:29:11;;;;;;;5.53;2.30;;;18.00;99.90;;;;;;4938562;29;20460;-87
2023/10/14 12:31:43;;;;;;;10.30;4.80;;;18.00;99.90;;;;;;4938543;29;20481;-86
2023/10/14 12:34:11;;;;;;;5.87;2.63;;;17.90;99.90;;;;;;4938643;29;20464;-87
2023/10/14 12:36:40;;;;;;;5.30;2.03;;;17.90;99.90;;;;;;4938034;29;20594;-87
2023/10/14 12:39:18;;;;;;;7.60;2.90;;;17.90;99.90;;;;;;4938533;29;20524;-87
2023/10/14 12:41:49;;;;;;;5.20;2.00;;;17.90;99.90;;;;;;4937936;29;20556;-85
2023/10/14 12:44:16;;;;;;;7.20;1.87;;;17.90;99.90;;;;;;4938702;29;20781;-86
2023/10/14 12:46:45;;;;;;;3.20;2.20;;;17.90;99.90;;;;;;4937966;29;20532;-86
2023/10/14 12:49:18;;;;;;;8.80;2.73;;;17.90;99.90;;;;;;4938458;29;20472;-86
2023/10/14 12:51:48;;;;;;;6.70;2.00;;;17.90;99.90;;;;;;4936486;29;20551;-87
2023/10/14 12:54:16;;;;;;;6.40;2.07;;;17.90;99.90;;;;;;4927863;29;20487;-86
2023/10/14 12:56:46;;;;;;;4.17;1.50;;;17.90;99.90;;;;;;4937275;29;20496;-84
2023/10/14 12:59:14;;;;;;;4.40;2.03;;;17.90;99.90;;;;;;4929032;29;20523;-87
2023/10/14 13:01:46;;;;;;;3.93;1.60;;;18.00;99.90;;;;;;4937307;29;20481;-86
2023/10/14 13:04:16;;;;;;;5.87;2.20;;;18.00;99.90;;;;;;4937253;29;20512;-86
2023/10/14 13:06:44;;;;;;;6.83;2.13;;;18.00;99.90;;;;;;4935930;29;20869;-80
2023/10/14 13:09:14;;;;;;;4.43;2.20;;;18.00;99.90;;;;;;4936093;29;20479;-86
2023/10/14 13:11:43;;;;;;;4.43;1.50;;;18.00;99.90;;;;;;4938209;29;20476;-85
2023/10/14 13:14:10;;;;;;;3.30;1.83;;;18.00;99.90;;;;;;4936810;29;20548;-87
2023/10/14 13:16:43;;;;;;;4.03;1.53;;;18.00;99.90;;;;;;4936241;29;20476;-87
2023/10/14 13:19:14;;;;;;;5.63;2.20;;;18.00;99.90;;;;;;4937847;29;20817;-86